Time;durP1;ratioP1;P1;durP2;ratioP2;P2;SDS_P1;SDS_P2;PMS_P1;PMS_P2;Temp;Humidity;BMP_temperature;BMP_pressure;BME280_temperature;BME280_humidity;BME280_pressure;Samples;Min_cycle;Max_cycle;Signal;HPM_P1;HPM_P2
2021/03/20 00:00:12;;;;;;;3.35;2.45;;;1.60;98.00;;;;;;5087146;28;20038;-65
2021/03/20 00:02:38;;;;;;;3.67;1.75;;;1.70;97.70;;;;;;5084681;28;20119;-65
2021/03/20 00:05:05;;;;;;;5.88;2.67;;;1.70;97.80;;;;;;5089071;28;20104;-65
2021/03/20 00:07:30;;;;;;;5.10;3.20;;;1.60;97.90;;;;;;5085549;28;20093;-65
2021/03/20 00:09:56;;;;;;;7.22;3.67;;;1.50;98.10;;;;;;5086140;28;20537;-65
2021/03/20 00:12:22;;;;;;;5.95;3.45;;;1.40;98.20;;;;;;5084066;28;20369;-65
2021/03/20 00:14:48;;;;;;;8.95;3.22;;;1.30;98.70;;;;;;5085656;28;20082;-65
2021/03/20 00:17:14;;;;;;;4.93;2.47;;;1.20;98.90;;;;;;5086398;28;20394;-65
2021/03/20 00:19:40;;;;;;;4.35;2.80;;;1.20;98.70;;;;;;5092207;28;20036;-65
2021/03/20 00:22:06;;;;;;;3.60;2.50;;;1.20;99.20;;;;;;5088545;28;20032;-65
2021/03/20 00:24:31;;;;;;;3.55;2.53;;;1.20;99.20;;;;;;5087293;28;20036;-65
2021/03/20 00:26:57;;;;;;;4.03;2.75;;;1.20;98.70;;;;;;5090355;28;20115;-65
2021/03/20 00:29:23;;;;;;;5.93;3.25;;;1.30;99.10;;;;;;5090753;28;20043;-65
2021/03/20 00:31:48;;;;;;;7.57;3.38;;;1.20;99.20;;;;;;5088003;28;20040;-65
2021/03/20 00:34:14;;;;;;;5.95;3.50;;;1.10;99.40;;;;;;5090481;28;20043;-65
2021/03/20 00:36:40;;;;;;;6.82;3.30;;;1.00;99.50;;;;;;5087926;28;20074;-65
2021/03/20 00:39:07;;;;;;;4.88;3.13;;;1.10;99.60;;;;;;5090117;28;20382;-65
2021/03/20 00:41:34;;;;;;;4.43;3.30;;;1.10;99.50;;;;;;5088976;28;20436;-65
2021/03/20 00:44:00;;;;;;;4.32;2.97;;;1.10;99.50;;;;;;5091275;28;20043;-64
2021/03/20 00:46:26;;;;;;;4.88;3.00;;;1.10;99.30;;;;;;5090206;28;20048;-65
2021/03/20 00:48:52;;;;;;;4.65;2.63;;;1.10;99.40;;;;;;5089739;28;20045;-65
2021/03/20 00:51:18;;;;;;;4.90;3.17;;;1.10;99.10;;;;;;5090701;28;20040;-65
2021/03/20 00:53:44;;;;;;;6.20;3.25;;;1.30;98.90;;;;;;5087323;28;20086;-65
2021/03/20 00:56:09;;;;;;;3.85;2.90;;;1.00;99.00;;;;;;5091784;28;20068;-64
2021/03/20 00:58:39;;;;;;;5.03;2.63;;;1.00;98.90;;;;;;5090143;28;20496;-65
2021/03/20 01:01:13;;;;;;;3.67;2.22;;;1.00;99.20;;;;;;5089249;28;20055;-65
2021/03/20 01:03:39;;;;;;;3.08;2.55;;;1.10;99.00;;;;;;5085031;28;20140;-65
2021/03/20 01:06:11;;;;;;;4.30;2.80;;;1.10;98.70;;;;;;5087449;28;20032;-65
2021/03/20 01:08:37;;;;;;;5.78;2.63;;;1.10;98.60;;;;;;5085881;28;20093;-65
2021/03/20 01:11:05;;;;;;;4.75;2.70;;;1.20;98.30;;;;;;5090548;28;20435;-65
2021/03/20 01:13:30;;;;;;;4.88;2.60;;;1.10;98.40;;;;;;5088037;28;20040;-65
2021/03/20 01:15:56;;;;;;;4.65;2.35;;;1.10;98.40;;;;;;5085212;28;20043;-65
2021/03/20 01:18:22;;;;;;;5.55;2.70;;;1.10;98.30;;;;;;5088569;28;20422;-65
2021/03/20 01:20:48;;;;;;;5.03;2.90;;;1.20;98.30;;;;;;5090661;28;20386;-65
2021/03/20 01:23:15;;;;;;;6.90;3.55;;;1.10;98.10;;;;;;5085587;28;20036;-65
2021/03/20 01:25:40;;;;;;;4.28;3.00;;;1.10;98.20;;;;;;5083579;28;20028;-65
2021/03/20 01:28:06;;;;;;;5.30;3.08;;;1.10;98.60;;;;;;5089376;28;20034;-65
2021/03/20 01:30:35;;;;;;;5.28;3.30;;;1.10;98.60;;;;;;5088684;28;20402;-65
2021/03/20 01:33:02;;;;;;;6.85;3.38;;;1.10;98.90;;;;;;5087606;28;20119;-65
2021/03/20 01:35:28;;;;;;;4.60;3.55;;;1.00;98.70;;;;;;5092210;28;20028;-65
2021/03/20 01:37:55;;;;;;;6.20;3.67;;;1.10;99.10;;;;;;5087491;28;20431;-65
2021/03/20 01:40:25;;;;;;;6.47;2.80;;;0.80;99.40;;;;;;5087254;28;20051;-65
2021/03/20 01:42:51;;;;;;;4.30;3.00;;;0.80;99.40;;;;;;5088066;28;20101;-65
2021/03/20 01:45:24;;;;;;;4.55;3.72;;;0.90;99.20;;;;;;5088176;28;20057;-65
2021/03/20 01:47:58;;;;;;;7.75;4.10;;;1.30;99.00;;;;;;5089242;28;20032;-65
2021/03/20 01:50:50;;;;;;;6.65;3.75;;;0.80;99.00;;;;;;5089995;28;20048;-65
2021/03/20 01:53:39;;;;;;;6.10;3.30;;;0.70;99.30;;;;;;5086033;28;20049;-65
2021/03/20 01:56:08;;;;;;;4.70;3.15;;;0.80;99.20;;;;;;5087195;28;20420;-65
2021/03/20 01:58:37;;;;;;;6.40;3.38;;;0.90;98.70;;;;;;5088450;28;20715;-65
2021/03/20 02:01:26;;;;;;;5.28;3.22;;;0.90;98.40;;;;;;5084822;28;20604;-65
2021/03/20 02:03:54;;;;;;;4.40;3.10;;;0.80;98.30;;;;;;5086051;28;20044;-65
2021/03/20 02:06:21;;;;;;;6.18;3.38;;;0.90;98.10;;;;;;5088547;28;20051;-65
2021/03/20 02:08:49;;;;;;;4.60;3.50;;;1.00;98.50;;;;;;5083808;28;20032;-65
2021/03/20 02:11:31;;;;;;;4.53;3.38;;;0.90;98.60;;;;;;5083303;28;20090;-65
2021/03/20 02:14:19;;;;;;;7.13;3.55;;;0.90;98.80;;;;;;5087674;28;20039;-65
2021/03/20 02:16:55;;;;;;;6.60;3.70;;;0.90;98.50;;;;;;5085701;28;20076;-65
2021/03/20 02:19:43;;;;;;;7.35;3.35;;;0.90;98.30;;;;;;5088128;28;20028;-65
2021/03/20 02:22:24;;;;;;;5.22;2.90;;;0.90;98.60;;;;;;5085536;28;20036;-65
2021/03/20 02:25:17;;;;;;;3.53;2.58;;;0.70;98.00;;;;;;5086056;28;20127;-65
2021/03/20 02:28:12;;;;;;;5.72;3.30;;;0.80;98.10;;;;;;5086020;28;20035;-65
2021/03/20 02:31:00;;;;;;;9.80;4.27;;;0.50;98.10;;;;;;5087630;28;20115;-65
2021/03/20 02:33:34;;;;;;;4.65;3.72;;;0.40;98.60;;;;;;5082784;28;20032;-65
2021/03/20 02:36:22;;;;;;;7.22;4.03;;;0.30;98.80;;;;;;5088594;28;20053;-65
2021/03/20 02:39:02;;;;;;;5.90;3.47;;;0.20;99.00;;;;;;5082427;28;20116;-65
2021/03/20 02:41:33;;;;;;;7.45;3.28;;;0.20;99.20;;;;;;5085541;28;20039;-65
2021/03/20 02:44:01;;;;;;;5.57;3.25;;;0.60;99.10;;;;;;5086727;28;20093;-65
2021/03/20 02:46:38;;;;;;;4.65;3.25;;;0.40;98.70;;;;;;5081773;28;20040;-65
2021/03/20 02:49:20;;;;;;;3.75;2.78;;;0.60;98.80;;;;;;5088059;28;20051;-65
2021/03/20 02:51:58;;;;;;;3.53;2.92;;;0.40;98.80;;;;;;5081445;28;20798;-65
2021/03/20 02:54:30;;;;;;;4.88;3.33;;;0.40;98.50;;;;;;5086426;28;20043;-65
2021/03/20 02:56:55;;;;;;;5.68;3.63;;;0.40;98.80;;;;;;5086215;28;20040;-65
2021/03/20 02:59:25;;;;;;;7.03;4.10;;;0.30;98.80;;;;;;5087161;28;20451;-65
2021/03/20 03:01:54;;;;;;;6.07;3.55;;;0.10;99.00;;;;;;5085201;28;20101;-65
2021/03/20 03:04:23;;;;;;;6.85;4.05;;;0.10;99.40;;;;;;5086829;28;20036;-65
2021/03/20 03:07:01;;;;;;;8.10;4.15;;;0.10;99.40;;;;;;5087485;28;20063;-65
2021/03/20 03:09:44;;;;;;;7.85;4.57;;;0.00;99.60;;;;;;5085425;28;20039;-65
2021/03/20 03:12:21;;;;;;;7.97;4.88;;;0.00;99.80;;;;;;5084628;28;20036;-65
2021/03/20 03:15:05;;;;;;;6.63;5.10;;;-0.10;99.90;;;;;;5088171;28;20507;-65
2021/03/20 03:17:34;;;;;;;5.80;3.90;;;-0.10;99.90;;;;;;5087057;28;20394;-65
2021/03/20 03:20:30;;;;;;;5.35;3.35;;;0.10;99.90;;;;;;5086764;28;20041;-65
2021/03/20 03:23:27;;;;;;;5.13;3.33;;;-0.10;99.90;;;;;;5083831;28;20680;-65
2021/03/20 03:26:14;;;;;;;;;;;0.10;99.50;;;;;;5089737;28;20390;-65
2021/03/20 03:28:45;;;;;;;;;;;0.10;99.50;;;;;;5088434;28;19999;-65
2021/03/20 03:31:16;;;;;;;4.03;3.33;;;0.10;99.40;;;;;;5086529;28;19928;-65
2021/03/20 03:33:52;;;;;;;5.75;3.63;;;0.10;99.50;;;;;;5082955;28;20059;-65
2021/03/20 03:36:20;;;;;;;5.55;3.10;;;0.20;99.00;;;;;;5084975;28;20059;-65
2021/03/20 03:38:59;;;;;;;4.90;3.65;;;0.20;98.80;;;;;;5084114;28;20075;-65
2021/03/20 03:41:35;;;;;;;6.85;4.57;;;0.20;99.00;;;;;;5085158;28;20518;-65
2021/03/20 03:44:02;;;;;;;7.35;4.68;;;0.10;99.00;;;;;;5087306;28;20043;-65
2021/03/20 03:46:32;;;;;;;6.32;4.30;;;0.00;99.30;;;;;;5082660;28;20062;-65
2021/03/20 03:49:04;;;;;;;5.43;3.75;;;0.10;99.60;;;;;;5084605;28;20036;-65
2021/03/20 03:51:30;;;;;;;7.40;4.05;;;0.00;99.30;;;;;;5088467;28;20043;-65
2021/03/20 03:53:59;;;;;;;6.57;4.00;;;0.20;99.10;;;;;;5091010;28;20062;-65
2021/03/20 03:56:43;;;;;;;5.55;3.72;;;0.20;99.10;;;;;;5088482;28;20086;-65
2021/03/20 03:59:17;;;;;;;7.28;3.42;;;0.20;99.10;;;;;;5090604;28;20050;-65
2021/03/20 04:02:14;;;;;;;6.82;3.80;;;0.20;98.90;;;;;;5084602;28;20043;-65
2021/03/20 04:05:02;;;;;;;7.78;4.22;;;0.20;99.20;;;;;;5089220;28;20044;-65
2021/03/20 04:07:53;;;;;;;5.88;4.53;;;0.20;99.50;;;;;;5087548;28;20038;-65
2021/03/20 04:10:29;;;;;;;7.55;4.22;;;0.20;99.60;;;;;;5089816;28;20028;-65
2021/03/20 04:13:12;;;;;;;6.90;3.87;;;0.20;99.70;;;;;;5088998;28;20082;-65
2021/03/20 04:15:45;;;;;;;5.03;3.83;;;0.20;99.50;;;;;;5089955;28;20115;-65
2021/03/20 04:18:22;;;;;;;8.73;3.78;;;0.20;99.70;;;;;;5086170;28;20044;-65
2021/03/20 04:21:17;;;;;;;6.40;3.60;;;0.20;99.60;;;;;;5088719;28;20042;-65
2021/03/20 04:23:54;;;;;;;8.80;4.20;;;0.30;99.40;;;;;;5086168;28;20085;-65
2021/03/20 04:26:58;;;;;;;6.63;4.25;;;0.30;99.40;;;;;;5090412;28;20059;-65
2021/03/20 04:29:50;;;;;;;6.20;4.30;;;0.30;99.50;;;;;;5090229;28;20036;-65
2021/03/20 04:32:39;;;;;;;6.00;3.60;;;0.30;99.30;;;;;;5086592;28;20036;-65
2021/03/20 04:35:22;;;;;;;7.07;4.20;;;0.30;99.40;;;;;;5086673;28;20048;-65
2021/03/20 04:37:52;;;;;;;5.72;3.30;;;0.30;99.10;;;;;;5088127;28;20036;-65
2021/03/20 04:40:35;;;;;;;5.60;3.20;;;0.30;99.10;;;;;;5087442;28;20529;-65
2021/03/20 04:43:01;;;;;;;4.63;3.78;;;0.30;99.00;;;;;;5087513;28;20409;-64
2021/03/20 04:45:34;;;;;;;7.28;3.83;;;0.30;99.30;;;;;;5089428;28;20032;-65
2021/03/20 04:48:06;;;;;;;10.70;3.72;;;0.30;99.10;;;;;;5085247;28;20024;-65
2021/03/20 04:50:35;;;;;;;6.22;4.30;;;0.30;99.30;;;;;;5086747;28;20047;-65
2021/03/20 04:53:00;;;;;;;5.40;4.03;;;0.30;99.40;;;;;;5083765;28;20414;-65
2021/03/20 04:55:28;;;;;;;7.20;3.97;;;0.30;99.10;;;;;;5088312;28;20089;-65
2021/03/20 04:58:05;;;;;;;7.53;4.30;;;0.20;99.10;;;;;;5087976;28;20435;-65
2021/03/20 05:00:38;;;;;;;6.65;4.88;;;0.20;99.20;;;;;;5087571;28;20043;-65
2021/03/20 05:03:21;;;;;;;5.88;4.80;;;0.20;99.30;;;;;;5086539;28;20085;-65
2021/03/20 05:05:47;;;;;;;9.50;4.45;;;0.10;99.40;;;;;;5086442;28;20039;-64
2021/03/20 05:08:24;;;;;;;5.30;4.15;;;0.10;99.50;;;;;;5089569;28;20047;-65
2021/03/20 05:10:54;;;;;;;6.85;4.22;;;0.10;99.60;;;;;;5088511;28;20039;-65
2021/03/20 05:13:55;;;;;;;7.57;4.78;;;0.00;99.60;;;;;;5088129;28;20036;-65
2021/03/20 05:16:21;;;;;;;5.97;3.92;;;0.00;99.70;;;;;;5089075;28;20074;-64
2021/03/20 05:18:50;;;;;;;4.78;4.05;;;0.10;99.60;;;;;;5089376;28;20068;-65
2021/03/20 05:21:19;;;;;;;5.50;4.05;;;0.10;99.60;;;;;;5085228;28;20089;-64
2021/03/20 05:23:45;;;;;;;6.15;4.28;;;0.10;99.60;;;;;;5083747;28;20067;-64
2021/03/20 05:26:12;;;;;;;5.47;4.20;;;0.10;99.50;;;;;;5085168;28;20131;-65
2021/03/20 05:28:38;;;;;;;5.97;4.38;;;0.10;99.50;;;;;;5088419;28;20069;-64
2021/03/20 05:31:04;;;;;;;5.95;4.78;;;0.20;99.50;;;;;;5088140;28;20036;-65
2021/03/20 05:33:31;;;;;;;6.25;4.88;;;0.10;99.60;;;;;;5088086;28;20100;-64
2021/03/20 05:35:57;;;;;;;8.98;4.47;;;0.10;99.70;;;;;;5089564;28;20048;-65
2021/03/20 05:38:23;;;;;;;6.57;4.57;;;0.20;99.70;;;;;;5084730;28;20417;-64
2021/03/20 05:40:56;;;;;;;6.63;4.63;;;0.10;99.70;;;;;;5087737;28;20172;-65
2021/03/20 05:43:40;;;;;;;9.07;4.07;;;0.20;99.50;;;;;;5086102;28;20060;-65
2021/03/20 05:46:29;;;;;;;7.90;5.18;;;0.10;99.60;;;;;;5086118;28;20036;-65
2021/03/20 05:49:04;;;;;;;5.30;4.68;;;0.10;99.60;;;;;;5088445;28;20036;-64
2021/03/20 05:51:51;;;;;;;5.53;4.83;;;0.10;99.70;;;;;;5085982;28;20064;-65
2021/03/20 05:54:40;;;;;;;7.25;5.32;;;0.10;99.80;;;;;;5084146;28;20655;-64
2021/03/20 05:57:26;;;;;;;6.05;4.65;;;0.20;99.90;;;;;;5086815;28;20498;-65
2021/03/20 06:00:05;;;;;;;6.57;5.33;;;0.20;99.90;;;;;;5087842;28;20039;-64
2021/03/20 06:02:37;;;;;;;6.60;5.53;;;0.20;99.90;;;;;;5084177;28;20292;-64
2021/03/20 06:05:30;;;;;;;10.98;6.18;;;0.30;99.90;;;;;;5087459;28;20032;-65
2021/03/20 06:08:24;;;;;;;9.95;6.20;;;0.30;99.90;;;;;;5084170;28;20040;-64
2021/03/20 06:11:12;;;;;;;10.05;5.20;;;0.40;99.90;;;;;;5086329;28;20108;-65
2021/03/20 06:13:50;;;;;;;15.60;7.22;;;0.50;99.90;;;;;;5083991;28;21446;-65
2021/03/20 06:16:41;;;;;;;7.40;5.20;;;0.70;99.90;;;;;;5084946;28;20490;-65
2021/03/20 06:19:16;;;;;;;8.30;4.70;;;1.00;99.90;;;;;;5088691;28;20060;-65
2021/03/20 06:22:00;;;;;;;8.43;4.70;;;1.20;99.90;;;;;;5086163;28;20085;-65
2021/03/20 06:24:50;;;;;;;8.88;3.92;;;1.40;99.40;;;;;;5090390;28;20063;-65
2021/03/20 06:27:23;;;;;;;6.03;4.10;;;1.40;99.20;;;;;;5089510;28;20089;-65
2021/03/20 06:30:02;;;;;;;6.38;4.38;;;1.50;99.20;;;;;;5088894;28;20036;-65
2021/03/20 06:32:38;;;;;;;7.07;3.80;;;1.60;99.00;;;;;;5084600;28;20135;-65
2021/03/20 06:35:16;;;;;;;8.10;4.32;;;1.40;98.90;;;;;;5087370;28;20493;-65
2021/03/20 06:37:55;;;;;;;5.57;4.20;;;1.30;98.60;;;;;;5085535;28;20040;-65
2021/03/20 06:40:24;;;;;;;5.80;4.75;;;1.30;99.00;;;;;;5111053;27;20909;-65
2021/03/20 06:42:51;;;;;;;6.05;4.28;;;1.30;99.10;;;;;;5083775;28;20048;-65
2021/03/20 06:45:26;;;;;;;7.60;4.28;;;1.30;99.10;;;;;;5085560;28;20371;-65
2021/03/20 06:47:57;;;;;;;6.93;4.33;;;1.30;99.00;;;;;;5085576;28;20128;-64
2021/03/20 06:50:37;;;;;;;6.28;4.50;;;1.30;99.00;;;;;;5085571;28;20040;-66
2021/03/20 06:53:06;;;;;;;5.30;4.75;;;1.30;98.90;;;;;;5083423;28;20066;-65
2021/03/20 06:55:41;;;;;;;7.47;4.43;;;1.30;98.90;;;;;;5085455;28;20040;-65
2021/03/20 06:58:16;;;;;;;6.35;4.38;;;1.30;99.20;;;;;;5083614;28;20044;-65
2021/03/20 07:00:43;;;;;;;6.63;3.85;;;1.30;99.20;;;;;;5084006;28;20095;-65
2021/03/20 07:03:46;;;;;;;7.20;4.15;;;1.40;98.60;;;;;;5083291;28;20145;-65
2021/03/20 07:06:30;;;;;;;9.05;4.13;;;1.30;98.30;;;;;;5084053;28;20043;-65
2021/03/20 07:09:02;;;;;;;5.50;4.63;;;1.30;98.20;;;;;;5085717;28;20032;-65
2021/03/20 07:11:52;;;;;;;7.72;4.20;;;1.30;98.20;;;;;;5082184;28;20036;-65
2021/03/20 07:14:36;;;;;;;6.05;3.85;;;1.30;98.50;;;;;;5082776;28;20039;-65
2021/03/20 07:17:04;;;;;;;6.43;4.30;;;1.40;98.40;;;;;;5086252;28;20047;-65
2021/03/20 07:19:29;;;;;;;6.47;3.92;;;1.40;98.50;;;;;;5084058;28;20042;-65
2021/03/20 07:21:58;;;;;;;4.25;3.65;;;1.50;98.40;;;;;;5087607;28;20028;-65
2021/03/20 07:24:40;;;;;;;11.57;4.78;;;1.50;98.30;;;;;;5086079;28;20040;-65
2021/03/20 07:27:15;;;;;;;5.22;3.85;;;1.60;98.30;;;;;;5088961;28;20044;-65
2021/03/20 07:29:48;;;;;;;7.57;4.55;;;1.60;98.20;;;;;;5087326;28;20111;-65
2021/03/20 07:32:22;;;;;;;5.68;3.90;;;1.70;98.00;;;;;;5085913;28;20036;-65
2021/03/20 07:34:50;;;;;;;6.32;4.07;;;1.80;97.80;;;;;;5086434;28;20067;-65
2021/03/20 07:37:18;;;;;;;4.40;2.95;;;1.90;97.60;;;;;;5087004;28;20032;-66
2021/03/20 07:39:56;;;;;;;7.20;3.80;;;2.00;97.80;;;;;;5089802;28;20196;-64
2021/03/20 07:42:33;;;;;;;8.20;3.97;;;2.10;97.40;;;;;;5086901;28;20040;-64
2021/03/20 07:45:25;;;;;;;6.57;4.25;;;2.30;97.40;;;;;;5083919;28;20036;-64
2021/03/20 07:47:53;;;;;;;8.55;3.42;;;2.40;97.40;;;;;;5087614;28;20436;-64
2021/03/20 07:50:19;;;;;;;6.15;3.88;;;2.50;96.80;;;;;;5088462;28;20047;-64
2021/03/20 07:52:46;;;;;;;4.55;3.30;;;2.60;96.50;;;;;;5087804;28;20044;-64
2021/03/20 07:55:22;;;;;;;9.07;3.60;;;2.60;96.70;;;;;;5090233;28;20043;-65
2021/03/20 07:57:59;;;;;;;5.35;2.88;;;2.80;96.40;;;;;;5083197;28;20035;-64
2021/03/20 08:00:31;;;;;;;4.45;3.10;;;2.80;96.10;;;;;;5085531;28;20090;-65
2021/03/20 08:03:13;;;;;;;8.95;3.90;;;2.90;96.10;;;;;;5085337;28;20118;-65
2021/03/20 08:05:39;;;;;;;7.20;3.50;;;3.00;96.00;;;;;;5103427;28;20051;-64
2021/03/20 08:08:18;;;;;;;5.50;3.28;;;3.00;96.20;;;;;;5088183;28;20039;-65
2021/03/20 08:10:47;;;;;;;3.60;3.00;;;3.10;96.30;;;;;;5086594;28;20054;-64
2021/03/20 08:13:15;;;;;;;5.07;3.17;;;3.20;96.00;;;;;;5081060;28;20490;-65
2021/03/20 08:15:44;;;;;;;7.20;4.05;;;3.30;95.80;;;;;;5089162;28;20162;-65
2021/03/20 08:18:18;;;;;;;7.82;3.63;;;3.40;95.60;;;;;;5087414;28;20159;-65
2021/03/20 08:21:14;;;;;;;5.63;3.38;;;3.40;95.90;;;;;;5089587;28;20036;-64
2021/03/20 08:23:59;;;;;;;6.28;3.58;;;3.60;96.00;;;;;;5087742;28;20055;-65
2021/03/20 08:26:27;;;;;;;6.25;3.90;;;3.80;95.20;;;;;;5083094;28;20079;-65
2021/03/20 08:28:59;;;;;;;7.30;3.20;;;3.90;95.10;;;;;;5082952;28;20040;-65
2021/03/20 08:31:49;;;;;;;4.63;2.80;;;4.10;94.60;;;;;;5084688;28;20044;-65
2021/03/20 08:34:41;;;;;;;8.50;3.53;;;4.30;94.20;;;;;;5087093;28;20123;-65
2021/03/20 08:37:13;;;;;;;7.45;3.63;;;4.70;93.60;;;;;;5086192;28;20048;-65
2021/03/20 08:40:39;;;;;;;7.15;4.32;;;5.20;93.80;;;;;;5086568;28;20047;-65
2021/03/20 08:43:16;;;;;;;7.57;4.25;;;5.60;92.70;;;;;;5060714;28;20040;-65
2021/03/20 08:46:19;;;;;;;9.30;5.50;;;5.90;91.30;;;;;;5085151;28;20048;-65
2021/03/20 08:48:57;;;;;;;10.68;6.05;;;6.20;90.70;;;;;;5089439;28;20040;-65
2021/03/20 08:51:36;;;;;;;11.40;6.47;;;6.40;91.20;;;;;;5089221;28;20032;-65
2021/03/20 08:54:20;;;;;;;10.57;6.20;;;6.60;90.40;;;;;;5118470;27;20032;-65
2021/03/20 08:57:24;;;;;;;11.02;6.40;;;6.80;89.30;;;;;;5090598;28;20131;-65
2021/03/20 08:59:53;;;;;;;15.18;7.85;;;7.00;88.70;;;;;;5072894;28;20048;-66
2021/03/20 09:02:25;;;;;;;9.57;6.18;;;7.20;89.70;;;;;;5087552;28;20618;-65
2021/03/20 09:05:15;;;;;;;10.40;6.45;;;7.20;88.80;;;;;;5090459;28;20039;-65
2021/03/20 09:08:27;;;;;;;8.15;5.80;;;7.30;87.50;;;;;;5088876;28;20166;-66
2021/03/20 09:11:05;;;;;;;9.55;5.40;;;7.30;88.50;;;;;;5063643;28;20071;-65
2021/03/20 09:13:45;;;;;;;12.50;7.03;;;7.20;87.70;;;;;;5083306;28;20043;-65
2021/03/20 09:16:40;;;;;;;12.35;7.05;;;7.10;90.10;;;;;;5087443;28;20064;-65
2021/03/20 09:19:15;;;;;;;11.98;7.03;;;7.00;87.90;;;;;;5083427;28;20060;-65
2021/03/20 09:21:42;;;;;;;10.82;7.43;;;6.90;90.10;;;;;;5086899;28;20036;-65
2021/03/20 09:24:15;;;;;;;11.75;6.90;;;6.70;90.40;;;;;;5088421;28;20064;-65
2021/03/20 09:26:43;;;;;;;12.63;8.02;;;6.80;90.30;;;;;;5085348;28;20040;-65
2021/03/20 09:29:24;;;;;;;9.75;6.28;;;6.80;89.30;;;;;;5084527;28;20032;-65
2021/03/20 09:31:53;;;;;;;12.77;7.93;;;6.70;90.10;;;;;;5083033;28;20104;-65
2021/03/20 09:34:35;;;;;;;10.30;6.30;;;6.80;90.50;;;;;;5088160;28;20032;-65
2021/03/20 09:37:22;;;;;;;11.80;6.82;;;6.90;89.80;;;;;;5082312;28;20036;-65
2021/03/20 09:39:57;;;;;;;10.77;7.43;;;7.00;90.30;;;;;;5089456;28;20068;-65
2021/03/20 09:45:11;;;;;;;9.57;6.25;;;7.20;91.20;;;;;;5088607;28;20481;-65
2021/03/20 09:47:40;;;;;;;10.10;6.13;;;7.20;91.00;;;;;;5077809;28;20414;-65
2021/03/20 09:50:26;;;;;;;9.55;6.28;;;7.30;91.30;;;;;;5088244;28;20119;-66
2021/03/20 09:52:57;;;;;;;10.02;6.13;;;7.40;91.10;;;;;;5088441;28;20039;-65
2021/03/20 09:55:29;;;;;;;6.60;3.38;;;7.50;91.00;;;;;;5087920;28;20780;-66
2021/03/20 09:58:06;;;;;;;6.63;4.20;;;7.50;90.10;;;;;;5087779;28;20042;-65
2021/03/20 10:00:50;;;;;;;5.70;3.40;;;7.60;90.40;;;;;;5085563;28;20131;-66
2021/03/20 10:03:47;;;;;;;6.65;3.92;;;7.50;89.40;;;;;;5087544;28;20040;-65
2021/03/20 10:06:19;;;;;;;5.57;4.18;;;7.50;89.70;;;;;;5088356;28;20067;-66
2021/03/20 10:08:48;;;;;;;5.97;4.32;;;7.60;90.00;;;;;;5104924;28;20047;-66
2021/03/20 10:11:29;;;;;;;6.22;4.40;;;7.60;89.40;;;;;;5088820;28;20041;-66
2021/03/20 10:13:54;;;;;;;10.98;5.30;;;7.70;89.90;;;;;;5082480;28;20040;-66
2021/03/20 10:16:24;;;;;;;7.00;4.85;;;8.10;90.40;;;;;;5084325;28;20051;-66
2021/03/20 10:18:56;;;;;;;7.82;5.97;;;8.30;89.30;;;;;;5088094;28;20040;-66
2021/03/20 10:21:26;;;;;;;10.85;7.05;;;8.50;88.80;;;;;;5083848;28;20048;-66
2021/03/20 10:24:24;;;;;;;8.55;5.15;;;8.70;88.30;;;;;;5088378;28;20073;-66
2021/03/20 10:27:02;;;;;;;10.43;5.25;;;9.00;89.10;;;;;;5083942;28;20399;-66
2021/03/20 10:29:36;;;;;;;8.50;4.97;;;9.10;86.40;;;;;;5084406;28;20044;-66
2021/03/20 10:32:23;;;;;;;10.70;5.47;;;9.10;83.80;;;;;;5084989;28;20036;-66
2021/03/20 10:34:56;;;;;;;10.05;5.80;;;9.20;83.90;;;;;;5084533;28;20042;-66
2021/03/20 10:37:31;;;;;;;8.40;5.60;;;9.40;83.30;;;;;;5087118;28;20409;-66
2021/03/20 10:40:10;;;;;;;11.85;6.43;;;9.60;77.70;;;;;;5087042;28;20445;-66
2021/03/20 10:42:40;;;;;;;11.52;7.63;;;9.60;82.10;;;;;;5085769;28;20163;-66
2021/03/20 10:45:31;;;;;;;7.05;5.45;;;9.70;80.30;;;;;;5087434;28;20111;-66
2021/03/20 10:48:25;;;;;;;7.60;5.53;;;9.90;83.20;;;;;;5083889;28;20036;-66
2021/03/20 10:50:58;;;;;;;13.32;8.40;;;10.00;81.90;;;;;;5082002;28;20398;-66
2021/03/20 10:53:27;;;;;;;14.25;9.00;;;10.00;79.60;;;;;;5085664;28;20039;-67
2021/03/20 10:55:54;;;;;;;14.25;7.70;;;9.90;79.20;;;;;;5087936;28;20043;-66
2021/03/20 10:58:36;;;;;;;8.60;5.38;;;9.70;80.60;;;;;;5089560;28;20040;-67
2021/03/20 11:01:02;;;;;;;5.88;4.35;;;9.60;80.40;;;;;;5088088;28;20027;-66
2021/03/20 11:03:43;;;;;;;6.50;4.10;;;9.40;80.30;;;;;;5085211;28;20063;-66
2021/03/20 11:06:15;;;;;;;5.15;4.07;;;9.40;76.40;;;;;;5083945;28;20131;-66
2021/03/20 11:08:43;;;;;;;7.47;4.35;;;9.30;83.90;;;;;;5085961;28;20028;-66
2021/03/20 11:11:25;;;;;;;6.13;4.80;;;9.20;79.60;;;;;;5086428;28;20074;-66
2021/03/20 11:13:53;;;;;;;5.88;4.07;;;9.20;82.10;;;;;;5081921;28;20070;-66
2021/03/20 11:16:22;;;;;;;4.18;3.53;;;9.20;86.00;;;;;;5085808;28;20086;-66
2021/03/20 11:19:04;;;;;;;6.72;3.83;;;9.20;85.90;;;;;;5084503;28;20078;-66
2021/03/20 11:21:34;;;;;;;6.57;4.05;;;9.20;84.40;;;;;;5082168;28;20040;-66
2021/03/20 11:24:04;;;;;;;6.85;4.07;;;9.20;83.50;;;;;;5081550;28;20584;-66
2021/03/20 11:26:32;;;;;;;3.97;3.38;;;9.30;84.60;;;;;;5085285;28;20054;-66
2021/03/20 11:29:00;;;;;;;4.40;3.60;;;9.40;84.50;;;;;;5086045;28;20051;-67
2021/03/20 11:31:27;;;;;;;4.60;3.47;;;9.40;84.80;;;;;;5080340;28;20044;-66
2021/03/20 11:33:54;;;;;;;3.97;3.28;;;9.40;82.20;;;;;;5083861;28;20067;-66
2021/03/20 11:36:23;;;;;;;4.35;3.38;;;9.30;81.50;;;;;;5085418;28;20093;-66
2021/03/20 11:38:49;;;;;;;4.28;3.80;;;9.30;82.20;;;;;;5084843;28;20058;-66
2021/03/20 11:41:18;;;;;;;4.78;3.70;;;9.40;84.30;;;;;;5085327;28;20517;-66
2021/03/20 11:43:57;;;;;;;5.95;4.05;;;9.50;83.90;;;;;;5085459;28;20047;-66
2021/03/20 11:46:36;;;;;;;4.70;3.72;;;9.50;85.00;;;;;;5085046;28;20036;-66
2021/03/20 11:49:15;;;;;;;7.32;3.72;;;9.50;85.20;;;;;;5085407;28;20066;-66
2021/03/20 11:51:46;;;;;;;7.47;3.78;;;9.40;83.30;;;;;;5086519;28;20094;-66
2021/03/20 11:54:36;;;;;;;8.30;3.58;;;9.40;85.10;;;;;;5087153;28;20040;-66
2021/03/20 11:57:21;;;;;;;4.80;3.53;;;9.40;82.50;;;;;;5080705;28;20033;-66
2021/03/20 11:59:47;;;;;;;3.92;3.13;;;9.40;86.50;;;;;;5087803;28;20112;-66
2021/03/20 12:02:38;;;;;;;6.88;3.85;;;9.40;86.60;;;;;;5084204;28;20390;-66
2021/03/20 12:05:32;;;;;;;4.10;3.05;;;9.30;86.50;;;;;;5085954;28;20070;-66
2021/03/20 12:08:21;;;;;;;4.35;3.03;;;9.20;85.80;;;;;;5085408;28;20060;-66
2021/03/20 12:11:07;;;;;;;5.82;3.58;;;9.20;86.70;;;;;;5087232;28;20028;-66
2021/03/20 12:13:57;;;;;;;6.30;3.40;;;9.20;88.80;;;;;;5087842;28;20032;-66
2021/03/20 12:16:33;;;;;;;4.63;3.97;;;9.20;88.80;;;;;;5089060;28;20093;-66
2021/03/20 12:19:11;;;;;;;5.25;3.42;;;9.20;88.40;;;;;;5089388;28;20036;-66
2021/03/20 12:21:51;;;;;;;4.57;3.30;;;9.30;88.20;;;;;;5089439;28;21130;-66
2021/03/20 12:24:28;;;;;;;4.70;3.30;;;9.30;87.50;;;;;;5088303;28;20036;-66
2021/03/20 12:26:55;;;;;;;3.47;3.10;;;9.40;88.00;;;;;;5089825;28;20036;-66
2021/03/20 12:29:46;;;;;;;9.27;3.60;;;9.30;86.40;;;;;;5089022;28;20051;-66
2021/03/20 12:32:33;;;;;;;5.80;3.10;;;9.30;86.40;;;;;;5090369;28;20036;-66
2021/03/20 12:35:17;;;;;;;4.85;3.25;;;9.30;87.30;;;;;;5084744;28;20032;-66
2021/03/20 12:37:47;;;;;;;9.07;3.95;;;9.30;86.60;;;;;;5090319;28;20406;-66
2021/03/20 12:40:16;;;;;;;3.33;3.00;;;9.30;86.40;;;;;;5090197;28;20118;-66
2021/03/20 12:42:42;;;;;;;6.18;3.20;;;9.10;86.00;;;;;;5089329;28;20040;-66
2021/03/20 12:45:10;;;;;;;5.85;3.63;;;9.00;86.40;;;;;;5091362;28;20490;-66
2021/03/20 12:47:35;;;;;;;6.88;3.22;;;9.00;87.40;;;;;;5091205;28;20587;-67
2021/03/20 12:50:02;;;;;;;6.03;3.30;;;8.90;88.70;;;;;;5088955;28;20032;-66
2021/03/20 12:52:32;;;;;;;4.55;3.60;;;8.90;88.40;;;;;;5088779;28;20037;-66
2021/03/20 12:54:57;;;;;;;5.93;2.75;;;8.80;88.80;;;;;;5088404;28;20040;-66
2021/03/20 12:57:23;;;;;;;4.78;3.38;;;8.70;90.00;;;;;;5086791;28;20036;-66
2021/03/20 12:59:50;;;;;;;6.10;3.47;;;8.70;90.50;;;;;;5091366;28;20105;-66
2021/03/20 13:02:17;;;;;;;8.05;3.63;;;8.60;91.00;;;;;;5087658;28;20115;-66
2021/03/20 13:04:45;;;;;;;7.10;4.15;;;8.60;90.90;;;;;;5089584;28;20043;-66
2021/03/20 13:07:12;;;;;;;8.50;3.75;;;8.60;91.30;;;;;;5088017;28;20044;-66
2021/03/20 13:09:38;;;;;;;6.03;3.88;;;8.60;91.70;;;;;;5085450;28;20497;-66
2021/03/20 13:12:06;;;;;;;5.15;3.38;;;8.60;92.00;;;;;;5088334;28;20099;-66
2021/03/20 13:14:33;;;;;;;6.25;3.55;;;8.50;91.90;;;;;;5086592;28;20058;-66
2021/03/20 13:17:00;;;;;;;6.28;3.90;;;8.50;91.90;;;;;;5085344;28;20433;-66
2021/03/20 13:19:26;;;;;;;6.32;3.70;;;8.40;92.10;;;;;;5089749;28;20036;-66
2021/03/20 13:21:52;;;;;;;9.32;4.45;;;8.30;91.90;;;;;;5087616;28;20097;-66
2021/03/20 13:24:17;;;;;;;4.55;3.70;;;8.30;92.20;;;;;;5088166;28;20031;-66
2021/03/20 13:26:43;;;;;;;4.60;3.22;;;8.30;92.80;;;;;;5088955;28;20070;-66
2021/03/20 13:29:09;;;;;;;5.03;3.33;;;8.30;92.60;;;;;;5086672;28;20394;-66
2021/03/20 13:31:34;;;;;;;8.95;3.75;;;8.30;92.50;;;;;;5087829;28;20109;-66
2021/03/20 13:34:00;;;;;;;10.13;3.85;;;8.30;92.80;;;;;;5090127;28;20375;-66
2021/03/20 13:36:27;;;;;;;8.63;3.35;;;8.10;92.50;;;;;;5091597;28;20036;-66
2021/03/20 13:38:52;;;;;;;8.07;3.63;;;8.10;92.50;;;;;;5089358;28;20036;-66